Time;durP1;ratioP1;P1;durP2;ratioP2;P2;SDS_P1;SDS_P2;PMS_P1;PMS_P2;Temp;Humidity;BMP_temperature;BMP_pressure;BME280_temperature;BME280_humidity;BME280_pressure;Samples;Min_cycle;Max_cycle;Signal;HPM_P1;HPM_P2
2022/02/19 00:00:24;;;;;;;1.23;0.80;;;10.20;60.80;;;;;;5082111;28;20101;-85
2022/02/19 00:02:54;;;;;;;1.25;0.88;;;10.20;60.80;;;;;;5081356;28;20052;-85
2022/02/19 00:05:20;;;;;;;1.52;0.98;;;10.20;60.80;;;;;;5063148;28;20036;-84
2022/02/19 00:07:47;;;;;;;1.42;0.80;;;10.10;60.70;;;;;;5083265;28;20028;-85
2022/02/19 00:10:14;;;;;;;0.90;0.80;;;10.20;60.80;;;;;;5081928;28;20115;-84
2022/02/19 00:12:40;;;;;;;1.15;0.90;;;10.20;60.70;;;;;;5047989;28;20032;-84
2022/02/19 00:15:06;;;;;;;1.17;0.93;;;10.20;60.60;;;;;;5083486;28;20036;-83
2022/02/19 00:17:32;;;;;;;1.25;0.80;;;10.20;60.70;;;;;;5066159;28;20125;-84
2022/02/19 00:20:01;;;;;;;1.25;0.93;;;10.20;60.60;;;;;;5048025;28;20380;-84
2022/02/19 00:22:28;;;;;;;1.10;0.70;;;10.20;60.70;;;;;;5084356;28;20036;-85
2022/02/19 00:24:54;;;;;;;1.63;0.90;;;10.20;60.70;;;;;;5082400;28;20039;-84
2022/02/19 00:27:20;;;;;;;1.05;0.95;;;10.20;60.60;;;;;;5061638;28;20028;-84
2022/02/19 00:29:46;;;;;;;1.85;1.02;;;10.20;60.70;;;;;;5049364;28;20036;-84
2022/02/19 00:32:12;;;;;;;1.58;1.10;;;10.20;60.60;;;;;;5083055;28;20036;-83
2022/02/19 00:34:38;;;;;;;1.52;0.80;;;10.20;60.70;;;;;;5067180;28;20036;-84
2022/02/19 00:37:05;;;;;;;1.33;1.08;;;10.20;60.80;;;;;;5081609;28;20401;-82
2022/02/19 00:39:31;;;;;;;0.82;0.82;;;10.20;60.70;;;;;;5083698;28;20041;-83
2022/02/19 00:41:58;;;;;;;1.33;0.95;;;10.20;60.90;;;;;;5083403;28;20038;-83
2022/02/19 00:44:26;;;;;;;1.20;1.10;;;10.20;60.90;;;;;;5083284;28;20128;-83
2022/02/19 00:46:52;;;;;;;1.80;1.10;;;10.20;60.90;;;;;;5048916;28;20037;-83
2022/02/19 00:49:18;;;;;;;1.77;1.13;;;10.20;60.90;;;;;;5078052;28;20500;-83
2022/02/19 00:51:44;;;;;;;1.55;1.42;;;10.20;60.90;;;;;;5080864;28;20048;-83
2022/02/19 00:54:10;;;;;;;2.15;1.35;;;10.20;60.90;;;;;;5065642;28;20090;-84
2022/02/19 00:56:36;;;;;;;2.35;1.23;;;10.20;60.90;;;;;;5083549;28;20569;-84
2022/02/19 00:59:02;;;;;;;2.78;1.05;;;10.20;61.00;;;;;;5080053;28;20118;-83
2022/02/19 01:01:28;;;;;;;1.40;1.10;;;10.20;61.00;;;;;;5080349;28;20028;-83
2022/02/19 01:04:04;;;;;;;2.00;1.17;;;10.20;61.00;;;;;;5083838;28;20510;-84
2022/02/19 01:06:31;;;;;;;1.30;1.20;;;10.20;61.10;;;;;;5083144;28;20495;-84
2022/02/19 01:08:57;;;;;;;1.27;1.17;;;10.20;61.10;;;;;;5082425;28;20032;-84
2022/02/19 01:11:23;;;;;;;1.65;1.10;;;10.20;61.20;;;;;;5082850;28;20028;-84
2022/02/19 01:13:50;;;;;;;1.23;1.00;;;10.20;61.20;;;;;;5083582;28;20077;-84
2022/02/19 01:16:17;;;;;;;1.52;1.10;;;10.20;61.20;;;;;;5083537;28;20043;-86
2022/02/19 01:18:45;;;;;;;1.75;1.30;;;10.20;61.20;;;;;;5064988;28;20040;-84
2022/02/19 01:21:11;;;;;;;1.23;0.95;;;10.20;61.30;;;;;;5048949;28;20155;-83
2022/02/19 01:23:38;;;;;;;0.93;0.93;;;10.20;61.30;;;;;;5063390;28;20185;-84
2022/02/19 01:26:04;;;;;;;1.30;1.00;;;10.20;61.20;;;;;;5081305;28;20111;-87
2022/02/19 01:28:30;;;;;;;7.40;1.27;;;10.20;61.20;;;;;;5087747;28;20036;-88
2022/02/19 01:30:58;;;;;;;1.52;1.00;;;10.20;61.20;;;;;;5069268;28;20032;-89
2022/02/19 01:33:24;;;;;;;2.85;1.20;;;10.30;61.80;;;;;;5070877;28;20036;-87
2022/02/19 01:35:50;;;;;;;1.20;0.90;;;10.30;61.10;;;;;;5085986;28;20043;-89
2022/02/19 01:38:18;;;;;;;1.65;1.10;;;10.30;61.30;;;;;;5069998;28;20051;-89
2022/02/19 01:40:47;;;;;;;1.70;1.10;;;10.30;61.40;;;;;;5055809;28;20040;-89
2022/02/19 01:43:13;;;;;;;1.15;0.90;;;10.30;61.20;;;;;;5073685;28;20055;-89
2022/02/19 01:45:39;;;;;;;1.98;0.90;;;10.30;61.30;;;;;;5076228;28;20117;-86
2022/02/19 01:48:06;;;;;;;1.90;1.05;;;10.30;61.30;;;;;;5083631;28;20073;-88
2022/02/19 01:50:32;;;;;;;3.03;1.40;;;10.30;61.40;;;;;;5054039;28;20056;-88
2022/02/19 01:53:00;;;;;;;2.30;1.13;;;10.30;61.40;;;;;;5084670;28;20032;-89
2022/02/19 01:55:36;;;;;;;2.50;1.10;;;10.30;61.60;;;;;;5052921;28;20089;-89
2022/02/19 01:58:13;;;;;;;1.48;1.27;;;10.30;61.60;;;;;;5056521;28;21442;-89
2022/02/19 02:00:41;;;;;;;1.30;1.13;;;10.30;61.60;;;;;;5084182;28;20055;-89
2022/02/19 02:03:33;;;;;;;1.05;0.95;;;10.30;61.70;;;;;;5070364;28;20067;-86
2022/02/19 02:06:09;;;;;;;0.95;0.95;;;10.30;61.40;;;;;;5054963;28;20039;-87
2022/02/19 02:08:38;;;;;;;1.35;0.90;;;10.30;61.50;;;;;;5087053;28;20067;-87
2022/02/19 02:11:05;;;;;;;3.33;1.30;;;10.30;61.40;;;;;;5086807;28;20032;-87
2022/02/19 02:13:36;;;;;;;1.55;1.20;;;10.30;61.40;;;;;;5069881;28;20043;-85
2022/02/19 02:16:02;;;;;;;1.15;0.98;;;10.30;61.30;;;;;;5070073;28;20517;-87
2022/02/19 02:18:48;;;;;;;1.60;0.98;;;10.30;61.40;;;;;;5086983;28;20093;-87
2022/02/19 02:21:14;;;;;;;2.10;0.98;;;10.30;61.40;;;;;;5091609;28;20139;-86
2022/02/19 02:23:40;;;;;;;1.13;1.02;;;10.40;61.20;;;;;;5073333;28;20044;-86
2022/02/19 02:26:07;;;;;;;2.55;1.20;;;10.30;61.20;;;;;;5085397;28;20074;-87
2022/02/19 02:28:33;;;;;;;2.13;1.30;;;10.30;61.20;;;;;;5085222;28;20052;-87
2022/02/19 02:30:59;;;;;;;1.23;0.98;;;10.30;61.20;;;;;;5087494;28;20043;-85
2022/02/19 02:33:25;;;;;;;2.40;1.00;;;10.30;61.20;;;;;;5065595;28;20037;-84
2022/02/19 02:35:55;;;;;;;1.67;0.98;;;10.30;61.20;;;;;;5066755;28;20040;-86
2022/02/19 02:38:30;;;;;;;2.13;1.13;;;10.40;61.20;;;;;;5082411;28;20040;-84
2022/02/19 02:40:59;;;;;;;3.58;1.13;;;10.30;61.20;;;;;;5085238;28;20113;-84
2022/02/19 02:43:26;;;;;;;2.88;1.58;;;10.40;61.30;;;;;;5085881;28;20039;-85
2022/02/19 02:45:52;;;;;;;3.13;1.10;;;10.40;61.40;;;;;;5066360;28;20032;-85
2022/02/19 02:48:19;;;;;;;1.10;1.00;;;10.30;61.30;;;;;;5067880;28;20398;-85
2022/02/19 02:50:46;;;;;;;1.58;0.90;;;10.40;61.40;;;;;;5083719;28;20039;-85
2022/02/19 02:53:12;;;;;;;1.70;1.30;;;10.30;61.40;;;;;;5082939;28;20032;-85
2022/02/19 02:55:40;;;;;;;1.48;1.10;;;10.40;61.40;;;;;;5067010;28;22449;-86
2022/02/19 02:58:06;;;;;;;1.25;1.10;;;10.40;61.40;;;;;;5085683;28;20081;-85
2022/02/19 03:00:33;;;;;;;2.45;1.00;;;10.40;61.40;;;;;;5050563;28;20044;-86
2022/02/19 03:02:59;;;;;;;2.35;1.10;;;10.40;61.50;;;;;;5084076;28;20035;-88
2022/02/19 03:05:27;;;;;;;2.00;1.10;;;10.40;61.50;;;;;;5065101;28;20042;-88
2022/02/19 03:07:53;;;;;;;3.15;1.05;;;10.40;61.50;;;;;;5084704;28;20581;-86
2022/02/19 03:10:19;;;;;;;2.05;1.13;;;10.40;61.50;;;;;;5081683;28;20092;-87
2022/02/19 03:12:46;;;;;;;1.45;1.00;;;10.40;61.60;;;;;;5064250;28;20032;-87
2022/02/19 03:15:18;;;;;;;2.35;1.20;;;10.40;61.60;;;;;;5067897;28;20028;-85
2022/02/19 03:17:46;;;;;;;1.10;1.00;;;10.40;61.70;;;;;;5085804;28;20059;-86
2022/02/19 03:20:20;;;;;;;1.55;0.95;;;10.40;62.10;;;;;;5053556;28;20533;-86
2022/02/19 03:22:47;;;;;;;1.48;1.20;;;10.40;61.70;;;;;;5076828;28;20076;-86
2022/02/19 03:25:17;;;;;;;3.10;1.20;;;10.40;61.80;;;;;;5056648;28;20067;-86
2022/02/19 03:27:45;;;;;;;3.53;1.33;;;10.40;61.90;;;;;;5070001;28;20161;-87
2022/02/19 03:30:17;;;;;;;3.10;1.30;;;10.40;62.10;;;;;;5069156;28;20029;-87
2022/02/19 03:32:44;;;;;;;2.28;1.48;;;10.40;62.00;;;;;;5084752;28;20033;-87
2022/02/19 03:35:15;;;;;;;1.95;1.20;;;10.40;62.20;;;;;;5084103;28;20081;-87
2022/02/19 03:37:42;;;;;;;1.40;1.30;;;10.40;62.20;;;;;;5065705;28;20028;-87
2022/02/19 03:40:20;;;;;;;2.03;1.30;;;10.40;62.10;;;;;;5064804;28;20036;-86
2022/02/19 03:42:47;;;;;;;2.03;1.48;;;10.40;62.20;;;;;;5087614;28;20016;-87
2022/02/19 03:45:14;;;;;;;1.80;1.10;;;10.40;62.20;;;;;;5047952;28;20093;-87
2022/02/19 03:47:44;;;;;;;3.65;1.40;;;10.50;62.30;;;;;;5084922;28;20084;-87
2022/02/19 03:50:17;;;;;;;1.70;1.25;;;10.50;62.10;;;;;;5064982;28;20048;-87
2022/02/19 03:52:45;;;;;;;1.70;1.20;;;10.50;62.20;;;;;;5085925;28;20040;-86
2022/02/19 03:55:24;;;;;;;1.27;0.93;;;10.40;62.00;;;;;;5083535;28;20039;-84
2022/02/19 03:57:52;;;;;;;1.73;1.48;;;10.50;62.00;;;;;;5084739;28;20039;-82
2022/02/19 04:00:18;;;;;;;1.23;1.13;;;10.50;62.10;;;;;;5086190;28;20215;-82
2022/02/19 04:02:48;;;;;;;2.05;1.40;;;10.50;62.00;;;;;;5063975;28;20495;-83
2022/02/19 04:05:21;;;;;;;2.40;1.33;;;10.50;62.00;;;;;;5065915;28;20414;-82
2022/02/19 04:07:47;;;;;;;1.52;1.23;;;10.50;62.00;;;;;;5064642;28;20100;-85
2022/02/19 04:10:19;;;;;;;2.50;1.30;;;10.50;62.00;;;;;;5084893;28;20629;-85
2022/02/19 04:12:45;;;;;;;3.35;1.80;;;10.50;62.00;;;;;;5064237;28;20032;-85
2022/02/19 04:15:19;;;;;;;1.25;1.15;;;10.50;61.90;;;;;;5068276;28;20040;-87
2022/02/19 04:17:49;;;;;;;1.92;1.23;;;10.50;61.90;;;;;;5064478;28;20498;-88
2022/02/19 04:20:16;;;;;;;1.70;1.33;;;10.50;61.90;;;;;;5084028;28;20043;-86
2022/02/19 04:22:42;;;;;;;2.17;1.38;;;10.50;61.90;;;;;;5067020;28;20035;-87
2022/02/19 04:25:10;;;;;;;2.45;1.23;;;10.50;62.00;;;;;;5065406;28;20115;-87
2022/02/19 04:27:36;;;;;;;2.65;1.48;;;10.50;61.90;;;;;;5080976;28;20040;-86
2022/02/19 04:30:04;;;;;;;2.60;1.80;;;10.50;62.30;;;;;;5066603;28;20043;-88
2022/02/19 04:32:33;;;;;;;2.70;1.40;;;10.50;62.00;;;;;;5062197;28;20760;-87
2022/02/19 04:35:00;;;;;;;1.35;1.25;;;10.50;61.90;;;;;;5051352;28;20032;-88
2022/02/19 04:37:29;;;;;;;2.33;1.08;;;10.50;61.90;;;;;;5065191;28;20042;-87
2022/02/19 04:39:56;;;;;;;1.63;1.27;;;10.50;61.90;;;;;;5050913;28;20040;-86
2022/02/19 04:42:32;;;;;;;1.38;1.27;;;10.50;61.80;;;;;;5066290;28;20040;-87
2022/02/19 04:45:12;;;;;;;1.40;1.30;;;10.50;61.90;;;;;;5086268;28;20084;-87
2022/02/19 04:47:46;;;;;;;2.05;1.50;;;10.50;62.10;;;;;;5066783;28;20090;-87
2022/02/19 04:50:17;;;;;;;1.52;1.35;;;10.50;62.10;;;;;;5065133;28;20048;-88
2022/02/19 04:52:45;;;;;;;2.55;1.25;;;10.50;62.10;;;;;;5063302;28;20480;-87
2022/02/19 04:55:14;;;;;;;1.40;1.30;;;10.50;62.10;;;;;;5099181;28;20041;-86
2022/02/19 04:57:44;;;;;;;2.28;1.40;;;10.50;62.20;;;;;;5082268;28;20169;-86
2022/02/19 05:00:18;;;;;;;1.83;1.20;;;10.50;62.20;;;;;;5081855;28;20522;-85
2022/02/19 05:03:02;;;;;;;1.83;1.15;;;10.60;62.20;;;;;;5086681;28;20055;-87
2022/02/19 05:05:31;;;;;;;1.45;1.30;;;10.50;62.20;;;;;;5086254;28;20077;-86
2022/02/19 05:07:57;;;;;;;3.70;1.30;;;10.60;62.30;;;;;;5084911;28;20038;-86
2022/02/19 05:10:24;;;;;;;4.85;1.85;;;10.60;62.70;;;;;;5068593;28;20108;-86
2022/02/19 05:12:51;;;;;;;1.88;1.30;;;10.50;62.40;;;;;;5085385;28;20143;-86
2022/02/19 05:15:17;;;;;;;1.70;1.10;;;10.60;62.50;;;;;;5086498;28;20119;-83
2022/02/19 05:17:56;;;;;;;1.60;1.23;;;10.60;62.50;;;;;;5071395;28;20039;-84
2022/02/19 05:20:24;;;;;;;1.52;1.20;;;10.60;62.50;;;;;;5087538;28;20534;-86
2022/02/19 05:22:51;;;;;;;1.40;1.30;;;10.60;62.30;;;;;;5070980;28;20020;-85
2022/02/19 05:25:24;;;;;;;1.92;1.30;;;10.60;62.30;;;;;;5086017;28;20035;-87
2022/02/19 05:27:51;;;;;;;2.70;1.50;;;10.60;62.30;;;;;;5068189;28;20053;-86
2022/02/19 05:30:17;;;;;;;1.58;1.10;;;10.60;62.30;;;;;;5085416;28;20123;-87
2022/02/19 05:33:08;;;;;;;1.58;1.35;;;10.60;62.20;;;;;;5085527;28;20542;-86
2022/02/19 05:35:35;;;;;;;1.35;1.17;;;10.60;62.20;;;;;;5088938;28;20479;-86
2022/02/19 05:38:01;;;;;;;1.80;1.52;;;10.60;62.10;;;;;;5087409;28;20077;-87
2022/02/19 05:40:30;;;;;;;1.40;1.30;;;10.60;62.10;;;;;;5083802;28;20036;-86
2022/02/19 05:43:00;;;;;;;1.40;1.17;;;10.60;62.20;;;;;;5067061;28;20052;-84
2022/02/19 05:45:28;;;;;;;3.88;1.83;;;10.60;62.10;;;;;;5088845;28;20402;-86
2022/02/19 05:47:58;;;;;;;1.30;1.20;;;10.60;62.10;;;;;;5082534;28;20043;-87
2022/02/19 05:50:41;;;;;;;1.35;1.25;;;10.60;62.00;;;;;;5079350;28;20089;-85
2022/02/19 05:53:25;;;;;;;2.97;1.40;;;10.70;62.10;;;;;;5069608;28;20071;-86
2022/02/19 05:55:51;;;;;;;1.35;1.25;;;10.70;62.00;;;;;;5092016;28;20040;-84
2022/02/19 05:58:17;;;;;;;2.22;1.35;;;10.60;61.80;;;;;;5090701;28;20039;-85
2022/02/19 06:00:55;;;;;;;2.13;1.40;;;10.70;61.90;;;;;;5071000;28;20584;-83
2022/02/19 06:03:21;;;;;;;1.67;1.58;;;10.60;62.00;;;;;;5054478;28;20119;-85
2022/02/19 06:05:47;;;;;;;1.73;1.50;;;10.70;62.00;;;;;;5066657;28;20127;-84
2022/02/19 06:08:14;;;;;;;1.05;1.02;;;10.70;62.00;;;;;;5071784;28;20043;-84
2022/02/19 06:10:39;;;;;;;1.77;1.40;;;10.70;61.90;;;;;;5058286;28;20032;-85
2022/02/19 06:13:09;;;;;;;2.20;1.30;;;10.70;61.90;;;;;;5090170;28;20040;-85
2022/02/19 06:15:43;;;;;;;2.47;1.23;;;10.70;61.90;;;;;;5086275;28;20506;-84
2022/02/19 06:18:29;;;;;;;;;;;10.70;61.80;;;;;;5082589;28;20056;-84
2022/02/19 06:20:55;;;;;;;3.05;1.63;;;10.70;61.70;;;;;;5050256;28;19956;-85
2022/02/19 06:23:30;;;;;;;2.75;1.50;;;10.70;61.60;;;;;;5068476;28;20031;-85
2022/02/19 06:25:56;;;;;;;2.15;1.23;;;10.70;61.80;;;;;;5067668;28;20608;-85
2022/02/19 06:28:22;;;;;;;2.28;1.30;;;10.70;61.70;;;;;;5081500;28;20043;-84
2022/02/19 06:30:49;;;;;;;1.30;1.13;;;10.70;61.70;;;;;;5083564;28;20087;-86
2022/02/19 06:33:15;;;;;;;2.13;1.77;;;10.70;61.80;;;;;;5081829;28;20040;-88
2022/02/19 06:35:43;;;;;;;7.05;2.10;;;10.70;62.10;;;;;;5068065;28;20089;-91
2022/02/19 06:38:18;;;;;;;2.50;2.00;;;10.70;61.40;;;;;;5071107;28;20368;-94
2022/02/19 06:40:44;;;;;;;4.80;2.00;;;10.60;60.80;;;;;;5087695;28;20043;-92
2022/02/19 06:43:10;;;;;;;2.90;1.92;;;10.50;60.30;;;;;;5088399;28;20535;-91
2022/02/19 06:45:40;;;;;;;3.42;2.08;;;10.40;60.00;;;;;;5086384;28;20043;-93
2022/02/19 06:48:13;;;;;;;4.05;2.03;;;10.40;59.90;;;;;;5083818;28;20413;-90
2022/02/19 06:50:39;;;;;;;3.88;2.17;;;10.30;59.90;;;;;;5086300;28;20051;-92
2022/02/19 06:53:08;;;;;;;3.42;1.92;;;10.30;59.90;;;;;;5074147;28;20458;-92
2022/02/19 06:55:34;;;;;;;2.47;1.63;;;10.20;59.80;;;;;;5088115;28;20130;-89
2022/02/19 06:58:04;;;;;;;6.25;2.50;;;10.10;59.70;;;;;;5090791;28;20064;-91
2022/02/19 07:00:35;;;;;;;5.90;2.60;;;10.10;59.80;;;;;;5075781;28;20040;-87
2022/02/19 07:03:04;;;;;;;4.03;2.63;;;10.10;59.80;;;;;;5085209;28;20122;-87
2022/02/19 07:05:35;;;;;;;4.03;2.65;;;10.00;59.80;;;;;;5071747;28;20059;-87
2022/02/19 07:08:14;;;;;;;14.10;2.70;;;10.00;59.90;;;;;;5075253;28;20109;-91
2022/02/19 07:10:40;;;;;;;6.97;2.40;;;10.00;60.00;;;;;;5092283;28;20078;-89
2022/02/19 07:13:06;;;;;;;6.25;2.72;;;9.90;60.00;;;;;;5091400;28;20510;-89
2022/02/19 07:15:32;;;;;;;6.22;2.22;;;9.90;60.00;;;;;;5065971;28;20081;-87
2022/02/19 07:18:21;;;;;;;6.60;2.60;;;9.90;59.90;;;;;;5092249;28;20028;-88
2022/02/19 07:21:00;;;;;;;5.47;3.15;;;10.00;60.00;;;;;;5077284;28;20089;-88
2022/02/19 07:23:27;;;;;;;4.65;2.20;;;9.90;60.00;;;;;;5068681;28;20048;-87
2022/02/19 07:25:54;;;;;;;7.20;3.03;;;9.90;60.10;;;;;;5076424;28;20498;-89
2022/02/19 07:28:20;;;;;;;3.85;2.20;;;9.80;59.90;;;;;;5077280;28;20117;-90
2022/02/19 07:30:47;;;;;;;4.70;2.28;;;9.90;59.90;;;;;;5092411;28;20068;-93
2022/02/19 07:33:14;;;;;;;4.28;2.33;;;9.80;59.90;;;;;;5116919;28;20044;-95
2022/02/19 07:35:46;;;;;;;5.25;2.28;;;9.90;60.00;;;;;;5088954;28;20032;-90
2022/02/19 07:38:12;;;;;;;4.72;2.20;;;9.80;60.00;;;;;;5080293;28;20383;-87
2022/02/19 07:40:39;;;;;;;2.80;2.10;;;9.80;60.00;;;;;;5075660;28;20044;-91
2022/02/19 07:43:06;;;;;;;3.25;1.80;;;9.80;60.00;;;;;;5058026;28;20097;-89
2022/02/19 07:45:51;;;;;;;2.55;2.33;;;9.90;59.90;;;;;;5096609;28;20028;-92
2022/02/19 07:48:36;;;;;;;3.33;2.33;;;9.90;59.80;;;;;;5087979;28;20070;-93
2022/02/19 07:58:29;;;;;;;7.45;2.80;;;9.90;59.90;;;;;;5080941;28;20032;-88
2022/02/19 08:00:22;;;;;;;6.22;3.22;;;9.90;59.90;;;;;;5075627;28;20070;-84
2022/02/19 08:02:54;;;;;;;8.90;3.67;;;9.90;60.00;;;;;;5083177;28;20044;-85
2022/02/19 08:05:21;;;;;;;6.72;3.67;;;10.00;60.60;;;;;;5081424;28;20043;-86
2022/02/19 08:07:50;;;;;;;6.72;3.90;;;10.00;61.00;;;;;;5069954;28;20398;-86
2022/02/19 08:10:18;;;;;;;6.60;3.65;;;10.10;61.40;;;;;;5050719;28;20124;-88
2022/02/19 08:12:44;;;;;;;5.95;3.10;;;10.10;61.50;;;;;;5063118;28;20509;-87
2022/02/19 08:15:09;;;;;;;6.47;3.20;;;10.20;61.60;;;;;;5092779;28;20123;-87
2022/02/19 08:17:35;;;;;;;7.30;3.25;;;10.20;61.60;;;;;;5067024;28;20140;-87
2022/02/19 08:20:03;;;;;;;6.78;2.75;;;10.20;61.60;;;;;;5095516;28;20036;-86
2022/02/19 08:22:29;;;;;;;5.95;2.70;;;10.30;61.60;;;;;;5103124;28;20032;-84
2022/02/19 08:24:55;;;;;;;9.77;3.22;;;10.30;61.60;;;;;;5095821;28;20042;-85
2022/02/19 08:27:21;;;;;;;6.18;3.00;;;10.40;61.70;;;;;;5075321;28;20028;-85
2022/02/19 08:29:46;;;;;;;7.32;2.63;;;10.40;61.70;;;;;;5095006;28;20039;-87
2022/02/19 08:32:12;;;;;;;5.90;2.83;;;10.50;61.60;;;;;;5096420;28;20040;-84
2022/02/19 08:34:39;;;;;;;6.78;2.75;;;10.50;61.50;;;;;;5089331;28;20040;-87
2022/02/19 08:37:05;;;;;;;3.15;2.05;;;10.50;61.50;;;;;;5086357;28;20042;-88
2022/02/19 08:39:31;;;;;;;7.40;2.95;;;10.60;61.60;;;;;;5082144;28;20487;-86
2022/02/19 08:41:57;;;;;;;8.27;2.78;;;10.60;61.60;;;;;;5082444;28;20089;-84
2022/02/19 08:44:23;;;;;;;4.85;2.83;;;10.60;61.50;;;;;;5082203;28;20398;-90
2022/02/19 08:46:49;;;;;;;5.03;2.85;;;10.60;61.40;;;;;;5083522;28;20161;-86
2022/02/19 08:49:15;;;;;;;3.00;1.90;;;10.70;61.40;;;;;;5080720;28;20036;-81
2022/02/19 08:51:42;;;;;;;6.22;2.20;;;10.70;61.30;;;;;;5087840;28;20077;-84
2022/02/19 08:54:09;;;;;;;4.47;2.42;;;10.80;61.40;;;;;;5079898;28;20068;-87
2022/02/19 08:56:36;;;;;;;4.15;2.30;;;10.80;61.30;;;;;;5063552;28;20032;-86
2022/02/19 08:59:02;;;;;;;3.22;1.90;;;10.80;61.20;;;;;;5068104;28;20032;-85
2022/02/19 09:01:29;;;;;;;6.18;2.67;;;10.80;61.20;;;;;;5082700;28;20060;-84
2022/02/19 09:03:55;;;;;;;4.57;2.20;;;10.80;61.20;;;;;;5088204;28;20040;-85
2022/02/19 09:06:22;;;;;;;4.13;2.28;;;10.90;61.20;;;;;;5085853;28;20040;-88
2022/02/19 09:08:48;;;;;;;4.03;1.95;;;10.90;61.20;;;;;;5084068;28;20393;-92
2022/02/19 09:11:15;;;;;;;4.32;1.88;;;10.90;61.10;;;;;;5083687;28;20028;-88
2022/02/19 09:13:41;;;;;;;7.90;2.20;;;10.90;61.10;;;;;;5085079;28;20647;-89
2022/02/19 09:16:10;;;;;;;3.50;1.60;;;10.90;61.10;;;;;;5085030;28;20036;-89
2022/02/19 09:18:36;;;;;;;4.95;2.08;;;11.00;61.10;;;;;;5083346;28;20136;-85
2022/02/19 09:21:02;;;;;;;4.57;2.00;;;11.00;61.70;;;;;;5080346;28;20083;-89
2022/02/19 09:23:29;;;;;;;5.28;2.47;;;11.00;61.20;;;;;;5084014;28;20167;-87
2022/02/19 09:25:55;;;;;;;4.40;2.10;;;11.00;61.20;;;;;;5083729;28;20098;-88
2022/02/19 09:28:24;;;;;;;3.15;1.95;;;11.00;61.20;;;;;;5084104;28;20495;-89
2022/02/19 09:30:50;;;;;;;5.35;2.25;;;11.00;61.20;;;;;;5081385;28;20048;-83
2022/02/19 09:33:16;;;;;;;3.42;1.88;;;11.00;61.20;;;;;;5083784;28;20040;-87
2022/02/19 09:35:42;;;;;;;2.90;1.77;;;11.10;61.20;;;;;;5065443;28;20127;-87
2022/02/19 09:38:08;;;;;;;5.43;2.20;;;11.10;61.20;;;;;;5084526;28;20086;-88
2022/02/19 09:40:35;;;;;;;3.08;1.80;;;11.10;61.10;;;;;;5097321;28;20037;-90
2022/02/19 09:43:01;;;;;;;3.60;1.90;;;11.10;61.00;;;;;;5067867;28;20036;-95
2022/02/19 09:45:29;;;;;;;3.67;1.70;;;11.10;61.00;;;;;;5087937;28;20032;-94
2022/02/19 09:47:58;;;;;;;4.10;2.00;;;11.10;61.00;;;;;;5089108;28;20032;-87
2022/02/19 09:50:28;;;;;;;2.97;1.80;;;11.10;61.00;;;;;;5087009;28;20494;-86
2022/02/19 09:52:54;;;;;;;4.65;1.90;;;11.10;61.00;;;;;;5087930;28;20032;-85
2022/02/19 09:55:22;;;;;;;4.65;1.90;;;11.20;61.10;;;;;;5087150;28;20119;-85
2022/02/19 09:57:48;;;;;;;4.22;2.00;;;11.20;61.10;;;;;;5086730;28;20078;-85
2022/02/19 10:00:15;;;;;;;4.15;1.80;;;11.20;61.10;;;;;;5087012;28;20044;-82
2022/02/19 10:02:41;;;;;;;4.40;1.52;;;11.20;61.10;;;;;;5086693;28;20035;-81
2022/02/19 10:05:15;;;;;;;2.88;1.40;;;11.20;61.10;;;;;;5087263;28;20028;-81
2022/02/19 10:07:43;;;;;;;2.28;1.58;;;11.20;61.10;;;;;;5086957;28;20045;-82
2022/02/19 10:10:23;;;;;;;2.92;1.50;;;11.20;61.10;;;;;;5088206;28;20094;-80
2022/02/19 10:12:49;;;;;;;5.78;1.50;;;11.20;61.10;;;;;;5085506;28;20040;-83
2022/02/19 10:15:15;;;;;;;2.35;1.58;;;11.20;61.10;;;;;;5085840;28;20043;-84
2022/02/19 10:17:41;;;;;;;2.83;1.42;;;11.30;61.00;;;;;;5086768;28;20117;-88
2022/02/19 10:20:09;;;;;;;2.13;1.42;;;11.30;61.00;;;;;;5086439;28;20040;-86
2022/02/19 10:22:37;;;;;;;4.10;1.50;;;11.30;61.00;;;;;;5065973;28;20032;-89
2022/02/19 10:25:06;;;;;;;5.45;2.00;;;11.30;61.00;;;;;;5093129;28;20123;-91
2022/02/19 10:28:04;;;;;;;1.73;1.35;;;11.30;60.90;;;;;;5089290;28;20525;-90
2022/02/19 10:30:30;;;;;;;4.40;1.42;;;11.30;61.10;;;;;;5077327;28;20120;-84
2022/02/19 10:33:02;;;;;;;5.68;1.50;;;11.30;61.10;;;;;;5087539;28;20035;-90
2022/02/19 10:35:38;;;;;;;4.07;1.60;;;11.30;61.10;;;;;;5087460;28;20086;-91
2022/02/19 10:38:07;;;;;;;1.70;1.35;;;11.30;61.40;;;;;;5088510;28;20024;-89
2022/02/19 10:40:43;;;;;;;3.67;2.10;;;11.30;61.50;;;;;;5068439;28;20044;-85
2022/02/19 10:43:23;;;;;;;4.07;1.52;;;11.30;61.60;;;;;;5084623;28;20259;-88
2022/02/19 10:45:52;;;;;;;4.07;1.48;;;11.30;61.60;;;;;;5085507;28;20911;-88
2022/02/19 10:48:24;;;;;;;2.58;1.67;;;11.40;61.80;;;;;;5081627;28;20128;-88
2022/02/19 10:50:51;;;;;;;2.42;1.58;;;11.40;61.80;;;;;;5054843;28;20056;-90
2022/02/19 10:53:26;;;;;;;4.82;1.88;;;11.30;61.90;;;;;;5086869;28;20131;-88
2022/02/19 10:55:53;;;;;;;2.90;1.90;;;11.30;61.90;;;;;;5075265;28;20441;-91
2022/02/19 10:58:20;;;;;;;4.15;1.45;;;11.40;62.10;;;;;;5070431;28;20044;-91
2022/02/19 11:00:46;;;;;;;3.05;1.67;;;11.40;62.20;;;;;;5086607;28;20094;-90
2022/02/19 11:03:13;;;;;;;2.65;1.42;;;11.40;62.20;;;;;;5073505;28;20414;-93
2022/02/19 11:05:40;;;;;;;3.40;1.60;;;11.40;62.20;;;;;;5072790;28;20036;-87
2022/02/19 11:08:07;;;;;;;6.15;2.45;;;11.40;62.30;;;;;;5088760;28;20035;-89
2022/02/19 11:10:34;;;;;;;3.95;1.88;;;11.40;62.40;;;;;;5048398;28;20072;-86
2022/02/19 11:13:01;;;;;;;7.78;3.13;;;11.40;62.60;;;;;;5083569;28;20085;-87
2022/02/19 11:15:27;;;;;;;5.38;2.70;;;11.40;62.70;;;;;;5068133;28;20459;-89
2022/02/19 11:17:54;;;;;;;3.85;2.67;;;11.40;62.90;;;;;;5068566;28;20672;-88
2022/02/19 11:20:24;;;;;;;5.50;2.92;;;11.40;62.90;;;;;;5082815;28;20032;-88
2022/02/19 11:22:53;;;;;;;6.22;3.00;;;11.40;63.10;;;;;;5082360;28;20033;-85
2022/02/19 11:25:21;;;;;;;11.05;3.22;;;11.40;63.30;;;;;;5083653;28;20083;-89
2022/02/19 11:27:57;;;;;;;6.50;2.63;;;11.40;63.20;;;;;;5081359;28;20052;-89
2022/02/19 11:30:26;;;;;;;6.22;2.80;;;11.40;63.40;;;;;;5085769;28;20032;-90
2022/02/19 11:32:54;;;;;;;6.57;3.03;;;11.40;63.40;;;;;;5102219;27;20028;-86
2022/02/19 11:35:39;;;;;;;7.13;2.80;;;11.40;63.50;;;;;;5077325;28;20023;-87
2022/02/19 11:38:28;;;;;;;4.95;2.80;;;11.50;63.60;;;;;;5090346;28;20066;-89
2022/02/19 11:41:01;;;;;;;4.85;2.80;;;11.50;63.60;;;;;;5081304;28;20042;-87
2022/02/19 11:43:39;;;;;;;5.75;2.83;;;11.50;63.70;;;;;;5071943;28;20053;-90
2022/02/19 11:46:15;;;;;;;5.97;2.85;;;11.40;63.70;;;;;;5071933;28;20044;-86
2022/02/19 11:48:49;;;;;;;4.05;2.60;;;11.40;63.50;;;;;;5051848;28;20032;-84
2022/02/19 11:51:23;;;;;;;5.75;2.60;;;11.40;63.60;;;;;;5081115;28;20125;-87
2022/02/19 11:54:13;;;;;;;7.38;2.78;;;11.50;63.70;;;;;;5084096;28;20550;-84
2022/02/19 11:56:40;;;;;;;3.83;2.25;;;11.40;63.70;;;;;;5103314;28;20038;-85
2022/02/19 11:59:11;;;;;;;5.55;2.60;;;11.40;63.80;;;;;;5068170;28;20050;-85
2022/02/19 12:01:40;;;;;;;5.50;2.75;;;11.40;63.70;;;;;;5103196;28;20514;-85
2022/02/19 12:04:15;;;;;;;7.78;2.97;;;11.40;63.80;;;;;;5101770;28;20035;-84
2022/02/19 12:06:43;;;;;;;6.47;3.05;;;11.40;63.80;;;;;;5084972;28;20028;-84
2022/02/19 12:09:17;;;;;;;4.90;2.60;;;11.50;64.30;;;;;;5083403;28;20093;-84
2022/02/19 12:11:49;;;;;;;5.68;3.05;;;11.50;63.70;;;;;;5102442;28;20042;-85
2022/02/19 12:14:41;;;;;;;4.00;2.53;;;11.50;63.70;;;;;;5087223;28;20047;-85
2022/02/19 12:17:12;;;;;;;6.75;3.08;;;11.50;63.70;;;;;;5087236;28;20130;-85
2022/02/19 12:20:02;;;;;;;4.10;2.60;;;11.40;63.70;;;;;;5070535;28;20442;-85
2022/02/19 12:22:36;;;;;;;4.38;2.72;;;11.40;63.70;;;;;;5102568;28;20030;-84
2022/02/19 12:25:18;;;;;;;5.40;2.95;;;11.40;63.60;;;;;;5068762;28;20036;-85
2022/02/19 12:28:17;;;;;;;3.33;2.60;;;11.40;63.60;;;;;;5101871;28;20127;-84
2022/02/19 12:30:44;;;;;;;4.95;2.97;;;11.40;63.60;;;;;;5084861;28;20525;-83
2022/02/19 12:33:11;;;;;;;3.33;2.67;;;11.50;63.70;;;;;;5086130;28;20047;-84
2022/02/19 12:35:40;;;;;;;3.78;2.67;;;11.40;63.50;;;;;;5101756;28;20027;-83
2022/02/19 12:38:06;;;;;;;6.00;3.03;;;11.40;63.90;;;;;;5118074;27;20043;-83
2022/02/19 12:40:33;;;;;;;3.92;3.05;;;11.40;63.30;;;;;;5099827;28;20606;-84
2022/02/19 12:42:59;;;;;;;3.55;2.45;;;11.40;63.30;;;;;;5104864;28;20584;-84
2022/02/19 12:45:25;;;;;;;3.67;3.00;;;11.40;63.20;;;;;;5068661;28;20028;-83
2022/02/19 12:47:51;;;;;;;4.65;2.67;;;11.40;63.20;;;;;;5086148;28;20027;-84
2022/02/19 12:50:19;;;;;;;3.97;3.03;;;11.40;63.10;;;;;;5081983;28;20049;-85
2022/02/19 12:52:51;;;;;;;3.00;2.40;;;11.40;63.00;;;;;;5102500;28;20031;-85
2022/02/19 12:55:19;;;;;;;3.13;2.53;;;11.40;63.00;;;;;;5085663;28;20193;-85
2022/02/19 12:57:53;;;;;;;2.92;2.50;;;11.40;63.10;;;;;;5104753;28;20032;-84
2022/02/19 13:00:22;;;;;;;3.63;2.50;;;11.30;62.90;;;;;;5093993;28;20188;-84
2022/02/19 13:02:55;;;;;;;2.75;2.40;;;11.30;62.90;;;;;;5102299;28;20046;-84
2022/02/19 13:05:21;;;;;;;3.17;2.60;;;11.40;63.00;;;;;;5102709;28;20027;-84